Time;durP1;ratioP1;P1;durP2;ratioP2;P2;SDS_P1;SDS_P2;PMS_P1;PMS_P2;Temp;Humidity;BMP_temperature;BMP_pressure;BME280_temperature;BME280_humidity;BME280_pressure;Samples;Min_cycle;Max_cycle;Signal;HPM_P1;HPM_P2
2021/07/29 00:01:36;;;;;;;18.48;11.00;;;;;;;15.65;76.76;99020.88;1736880;81;20951;-65
2021/07/29 00:04:03;;;;;;;14.57;9.53;;;;;;;15.64;76.80;99020.53;1744948;81;21068;-65
2021/07/29 00:06:29;;;;;;;23.85;10.38;;;;;;;15.50;76.84;99003.70;1744322;81;20883;-64
2021/07/29 00:08:56;;;;;;;12.68;9.20;;;;;;;15.57;76.81;99024.59;1737680;81;22290;-65
2021/07/29 00:11:23;;;;;;;13.73;9.70;;;;;;;15.49;76.85;99016.47;1743930;81;21456;-64
2021/07/29 00:13:57;;;;;;;20.60;11.90;;;;;;;15.36;76.76;99016.13;1741669;81;20958;-65
2021/07/29 00:16:22;;;;;;;24.12;12.33;;;;;;;15.28;76.85;99015.89;1739305;81;21852;-65
2021/07/29 00:20:00;;;;;;;22.30;12.20;;;;;;;15.20;76.94;99020.91;1742571;81;21901;-65
2021/07/29 00:22:26;;;;;;;20.45;10.82;;;;;;;15.16;77.01;99019.48;1740100;81;21349;-65
2021/07/29 00:24:53;;;;;;;14.20;9.77;;;;;;;15.06;77.08;99018.50;1738793;81;21058;-65
2021/07/29 00:27:19;;;;;;;17.33;9.97;;;;;;;15.03;77.37;99016.11;1740705;81;20947;-65
2021/07/29 00:29:46;;;;;;;13.53;9.27;;;;;;;15.02;77.36;99013.97;1748877;81;21062;-65
2021/07/29 00:32:12;;;;;;;13.97;9.10;;;;;;;15.00;77.56;99020.64;1746363;81;20930;-64
2021/07/29 00:34:39;;;;;;;13.98;8.00;;;;;;;15.05;77.66;99022.10;1743067;81;20966;-65
2021/07/29 00:37:07;;;;;;;12.20;8.65;;;;;;;15.04;77.50;99012.52;1735053;81;20947;-64
2021/07/29 00:39:33;;;;;;;12.47;8.35;;;;;;;15.05;77.60;99008.95;1738844;81;20923;-65
2021/07/29 00:42:01;;;;;;;9.47;8.43;;;;;;;15.03;77.58;99008.23;1740168;81;21035;-65
2021/07/29 00:44:28;;;;;;;8.33;7.45;;;;;;;14.99;77.64;99011.09;1744316;81;20895;-65
2021/07/29 00:46:55;;;;;;;8.53;7.40;;;;;;;14.93;77.54;99012.89;1738933;81;20926;-64
2021/07/29 00:49:22;;;;;;;10.03;7.37;;;;;;;14.84;77.54;99012.25;1743980;81;20986;-65
2021/07/29 00:51:48;;;;;;;12.50;7.60;;;;;;;14.76;77.60;99015.97;1738764;81;20915;-64
2021/07/29 00:54:15;;;;;;;10.57;7.73;;;;;;;14.73;77.80;99010.91;1744914;81;21903;-65
2021/07/29 00:56:45;;;;;;;9.70;7.10;;;;;;;14.72;77.85;99010.56;1748412;81;21708;-65
2021/07/29 00:59:12;;;;;;;9.03;7.17;;;;;;;14.69;77.95;99009.48;1739140;81;20930;-65
2021/07/29 01:01:38;;;;;;;9.00;6.78;;;;;;;14.65;77.96;99006.27;1734074;81;20888;-65
2021/07/29 01:04:05;;;;;;;13.87;7.87;;;;;;;14.59;78.01;99007.18;1736348;81;20928;-65
2021/07/29 01:06:31;;;;;;;11.13;7.40;;;;;;;14.53;78.12;99002.74;1734611;81;21082;-65
2021/07/29 01:09:01;;;;;;;11.03;7.37;;;;;;;14.50;78.21;98999.00;1731647;81;21434;-65
2021/07/29 01:11:27;;;;;;;10.30;7.40;;;;;;;14.53;78.39;98998.80;1736044;81;20960;-65
2021/07/29 01:13:54;;;;;;;16.63;8.00;;;;;;;14.55;78.36;98996.08;1737706;81;20924;-65
2021/07/29 01:16:20;;;;;;;10.30;7.80;;;;;;;14.52;78.34;98989.27;1742985;81;20899;-65
2021/07/29 01:18:47;;;;;;;21.10;8.53;;;;;;;14.50;78.42;98993.75;1737896;81;21825;-65
2021/07/29 01:21:14;;;;;;;16.93;8.50;;;;;;;14.46;78.25;98986.23;1737686;81;21461;-65
2021/07/29 01:23:41;;;;;;;17.55;9.18;;;;;;;14.43;78.49;98989.92;1741303;81;20908;-65
2021/07/29 01:26:08;;;;;;;16.15;8.88;;;;;;;14.39;78.35;98985.84;1734656;81;20959;-65
2021/07/29 01:28:34;;;;;;;17.53;9.50;;;;;;;14.33;78.37;98979.73;1738288;81;20899;-65
2021/07/29 01:31:01;;;;;;;16.82;9.93;;;;;;;14.28;78.67;98979.23;1736700;81;21724;-64
2021/07/29 01:33:28;;;;;;;14.67;9.43;;;;;;;14.30;78.76;98976.03;1738036;81;21487;-65
2021/07/29 01:35:54;;;;;;;13.77;8.97;;;;;;;14.31;78.69;98976.38;1740170;81;21489;-65
2021/07/29 01:38:21;;;;;;;15.73;9.70;;;;;;;14.32;78.74;98972.82;1735786;81;20877;-65
2021/07/29 01:40:47;;;;;;;14.27;9.30;;;;;;;14.34;78.83;98972.23;1738515;81;20916;-65
2021/07/29 01:43:14;;;;;;;13.30;8.77;;;;;;;14.30;78.74;98977.34;1740189;81;21056;-65
2021/07/29 01:45:41;;;;;;;21.33;10.57;;;;;;;14.27;78.95;98974.95;1737607;81;20920;-64
2021/07/29 01:48:07;;;;;;;10.87;8.80;;;;;;;14.26;79.11;98961.47;1732768;81;20916;-65
2021/07/29 01:50:34;;;;;;;11.80;8.90;;;;;;;14.36;79.19;98972.94;1740494;81;21502;-65
2021/07/29 01:53:00;;;;;;;10.38;8.33;;;;;;;14.41;79.30;98964.25;1740745;81;21496;-65
2021/07/29 01:55:27;;;;;;;11.93;8.10;;;;;;;14.42;79.23;98967.22;1735512;81;21071;-64
2021/07/29 01:57:53;;;;;;;10.43;8.33;;;;;;;14.45;79.33;98968.33;1740429;81;20906;-64
2021/07/29 02:00:22;;;;;;;11.60;8.73;;;;;;;14.48;79.37;98966.78;1737732;81;21481;-65
2021/07/29 02:02:49;;;;;;;12.63;7.97;;;;;;;14.48;79.45;98966.78;1735429;81;21591;-65
2021/07/29 02:05:15;;;;;;;;;;;;;;;14.52;79.38;98972.67;1739045;81;21466;-65
2021/07/29 02:07:42;;;;;;;10.35;8.15;;;;;;;14.54;79.59;98978.17;1734428;81;21097;-65
2021/07/29 02:10:09;;;;;;;10.80;8.00;;;;;;;14.57;79.52;98964.45;1738057;81;21504;-64
2021/07/29 02:12:36;;;;;;;9.00;7.08;;;;;;;14.59;79.51;98967.78;1737666;81;21430;-64
2021/07/29 02:15:03;;;;;;;9.63;7.47;;;;;;;14.62;79.58;98964.91;1739996;81;20934;-65
2021/07/29 02:17:29;;;;;;;8.15;6.75;;;;;;;14.62;79.49;98970.17;1733785;81;20915;-65
2021/07/29 02:19:56;;;;;;;9.03;7.60;;;;;;;14.63;79.69;98975.80;1744062;81;21868;-65
2021/07/29 02:22:22;;;;;;;8.23;7.07;;;;;;;14.67;79.67;98965.41;1739561;81;20971;-65
2021/07/29 02:24:49;;;;;;;7.67;6.97;;;;;;;14.69;79.67;98968.77;1735606;81;20916;-64
2021/07/29 02:27:15;;;;;;;7.97;7.13;;;;;;;14.69;79.62;98959.56;1736774;81;20943;-65
2021/07/29 02:29:42;;;;;;;8.53;6.63;;;;;;;14.70;79.74;98967.80;1741228;81;20928;-65
2021/07/29 02:32:09;;;;;;;8.37;6.93;;;;;;;14.72;79.72;98968.52;1736600;81;21912;-65
2021/07/29 02:34:35;;;;;;;9.03;6.67;;;;;;;14.72;79.64;98969.36;1740716;81;20927;-65
2021/07/29 02:37:02;;;;;;;11.67;6.97;;;;;;;14.74;79.83;98966.63;1743075;81;20891;-65
2021/07/29 02:39:28;;;;;;;8.35;6.58;;;;;;;14.75;79.71;98967.80;1733972;81;20951;-64
2021/07/29 02:41:55;;;;;;;11.33;7.60;;;;;;;14.74;79.71;98969.25;1737835;81;20958;-64
2021/07/29 02:44:22;;;;;;;16.57;7.57;;;;;;;14.72;79.63;98969.84;1741948;81;20921;-65
2021/07/29 02:46:48;;;;;;;10.90;7.30;;;;;;;14.71;79.69;98958.98;1748189;81;20910;-65
2021/07/29 02:49:15;;;;;;;9.40;8.27;;;;;;;14.70;79.70;98962.54;1737247;81;20947;-64
2021/07/29 02:51:41;;;;;;;10.70;8.18;;;;;;;14.68;79.68;98968.41;1743087;81;20932;-65
2021/07/29 02:54:08;;;;;;;10.60;7.00;;;;;;;14.68;79.76;98967.09;1742456;81;20916;-65
2021/07/29 02:56:34;;;;;;;10.37;8.33;;;;;;;14.67;79.77;98962.78;1737703;81;22013;-65
2021/07/29 02:59:02;;;;;;;9.93;7.15;;;;;;;14.66;79.90;98969.00;1737193;81;20884;-64
2021/07/29 03:01:28;;;;;;;12.13;8.15;;;;;;;14.67;79.86;98968.03;1737574;81;20962;-64
2021/07/29 03:03:55;;;;;;;8.77;7.87;;;;;;;14.71;79.99;98966.86;1736299;81;20912;-65
2021/07/29 03:06:22;;;;;;;10.90;7.97;;;;;;;14.76;80.08;98957.67;1743674;81;20935;-65
2021/07/29 03:08:48;;;;;;;9.38;7.95;;;;;;;14.77;79.97;98951.45;1735214;81;21875;-65
2021/07/29 03:11:16;;;;;;;12.37;7.00;;;;;;;14.81;79.96;98964.35;1738573;81;20928;-65
2021/07/29 03:13:42;;;;;;;;;;;;;;;14.85;80.03;98964.02;1739274;81;20996;-64
2021/07/29 03:16:09;;;;;;;10.23;7.20;;;;;;;14.90;80.14;98959.69;1738779;81;20097;-65
2021/07/29 03:18:35;;;;;;;9.20;7.25;;;;;;;14.96;80.13;98954.82;1741244;81;20982;-65
2021/07/29 03:21:02;;;;;;;13.77;7.50;;;;;;;15.08;80.14;98956.13;1741527;81;21087;-64
2021/07/29 03:23:28;;;;;;;7.40;6.33;;;;;;;15.43;80.50;98962.09;1739859;81;20959;-64
2021/07/29 03:25:55;;;;;;;10.00;7.33;;;;;;;16.05;80.17;98963.27;1741864;81;21257;-65
2021/07/29 03:28:22;;;;;;;8.27;6.70;;;;;;;16.64;80.07;98956.63;1739506;81;20864;-65
2021/07/29 03:30:50;;;;;;;7.90;6.20;;;;;;;17.37;79.93;98956.57;1738875;81;20986;-66
2021/07/29 03:33:16;;;;;;;9.28;6.42;;;;;;;18.01;79.39;98956.16;1739903;81;21273;-65
2021/07/29 03:35:43;;;;;;;14.45;6.78;;;;;;;18.66;79.11;98955.05;1737702;81;20926;-65
2021/07/29 03:38:09;;;;;;;21.40;7.17;;;;;;;19.21;78.42;98949.03;1743923;81;21374;-65
2021/07/29 03:40:37;;;;;;;45.75;9.13;;;;;;;19.82;78.20;98944.45;1736179;81;21435;-65
2021/07/29 03:43:04;;;;;;;;;;;;;;;20.32;77.24;98943.91;1713013;81;21580;-66
2021/07/29 03:45:32;;;;;;;21.97;6.30;;;;;;;20.73;76.82;98942.92;1739129;81;21953;-65
2021/07/29 03:48:00;;;;;;;14.98;6.05;;;;;;;21.04;76.44;98941.10;1737211;81;20888;-65
2021/07/29 03:50:28;;;;;;;42.13;6.80;;;;;;;21.42;76.28;98944.27;1734460;81;20943;-65
2021/07/29 03:52:54;;;;;;;25.65;7.12;;;;;;;21.95;76.00;98937.75;1742116;81;20884;-65
2021/07/29 03:55:21;;;;;;;21.12;6.10;;;;;;;22.42;75.33;98942.45;1741703;81;20978;-65
2021/07/29 03:57:48;;;;;;;12.98;5.00;;;;;;;22.92;74.91;98942.70;1743639;81;21057;-65
2021/07/29 04:00:15;;;;;;;11.83;5.30;;;;;;;23.33;74.26;98938.60;1742899;81;20954;-65
2021/07/29 04:02:42;;;;;;;15.85;4.42;;;;;;;23.76;73.53;98935.06;1740765;81;21456;-65
2021/07/29 04:05:10;;;;;;;10.85;4.22;;;;;;;24.43;74.12;98928.23;1742282;81;21502;-65
2021/07/29 04:07:37;;;;;;;7.78;4.45;;;;;;;24.91;73.45;98931.44;1739256;81;20943;-65
2021/07/29 04:10:06;;;;;;;35.03;5.58;;;;;;;25.40;73.14;98932.20;1739113;81;20988;-65
2021/07/29 04:12:33;;;;;;;18.40;4.55;;;;;;;25.87;72.77;98929.06;1754293;80;20963;-65
2021/07/29 04:15:00;;;;;;;6.67;4.15;;;;;;;26.46;71.92;98935.97;1740328;81;21416;-65
2021/07/29 04:17:26;;;;;;;15.55;4.00;;;;;;;26.82;71.08;98932.34;1745407;81;21500;-65
2021/07/29 04:19:54;;;;;;;;;;;;;;;27.16;70.39;98930.70;1746702;81;20879;-66
2021/07/29 04:22:21;;;;;;;35.43;6.10;;;;;;;27.51;69.53;98930.66;1741093;81;21057;-65
2021/07/29 04:24:47;;;;;;;32.50;5.62;;;;;;;27.79;69.30;98931.39;1739026;81;20903;-66
2021/07/29 04:27:14;;;;;;;39.83;5.42;;;;;;;28.11;68.54;98924.92;1741173;81;20932;-66
2021/07/29 04:29:41;;;;;;;39.67;5.62;;;;;;;28.28;67.55;98932.88;1739173;81;20918;-65
2021/07/29 04:32:07;;;;;;;9.23;3.95;;;;;;;28.28;66.76;98928.85;1739024;81;20953;-66
2021/07/29 04:34:34;;;;;;;5.00;3.10;;;;;;;28.45;66.64;98932.50;1740721;81;21054;-66
2021/07/29 04:37:01;;;;;;;8.58;3.83;;;;;;;28.77;66.56;98920.91;1739469;81;20915;-66
2021/07/29 04:39:29;;;;;;;36.13;5.17;;;;;;;29.11;66.16;98921.67;1749107;81;21871;-66
2021/07/29 04:41:55;;;;;;;25.57;4.75;;;;;;;29.47;65.46;98921.63;1745158;81;20926;-66
2021/07/29 04:44:22;;;;;;;20.68;4.58;;;;;;;29.61;64.10;98916.49;1742541;81;21493;-66
2021/07/29 04:46:49;;;;;;;90.80;10.60;;;;;;;29.72;64.06;98919.58;1736779;81;21081;-66
2021/07/29 04:49:19;;;;;;;106.10;11.78;;;;;;;29.91;62.80;98921.30;1738556;81;20900;-66
2021/07/29 04:51:44;;;;;;;39.73;5.55;;;;;;;29.82;62.06;98919.91;1739468;81;20904;-66
2021/07/29 04:54:10;;;;;;;40.90;6.00;;;;;;;29.97;62.03;98924.48;1744357;81;20990;-66
2021/07/29 04:56:37;;;;;;;98.33;9.75;;;;;;;30.25;61.89;98919.21;1737995;81;20954;-66
2021/07/29 04:59:03;;;;;;;25.35;4.90;;;;;;;30.72;61.70;98916.92;1739703;81;21472;-66
2021/07/29 05:01:31;;;;;;;9.78;3.52;;;;;;;30.93;60.26;98919.23;1742908;81;20943;-66
2021/07/29 05:04:01;;;;;;;14.18;3.30;;;;;;;30.89;59.23;98915.35;1738013;81;20936;-66
2021/07/29 05:06:28;;;;;;;14.38;4.00;;;;;;;30.87;59.17;98912.58;1746546;81;21393;-66
2021/07/29 05:08:54;;;;;;;23.55;4.55;;;;;;;31.19;58.91;98908.66;1739303;81;21502;-66
2021/07/29 05:11:21;;;;;;;43.48;5.50;;;;;;;31.30;58.02;98905.73;1741542;81;21124;-66
2021/07/29 05:13:47;;;;;;;39.08;4.87;;;;;;;31.34;57.40;98906.94;1735644;81;20939;-65
2021/07/29 05:16:14;;;;;;;8.90;3.15;;;;;;;31.33;56.81;98909.31;1741603;81;21449;-66
2021/07/29 05:18:41;;;;;;;11.03;3.50;;;;;;;31.39;56.21;98909.78;1744672;81;21061;-66
2021/07/29 05:21:09;;;;;;;28.55;4.65;;;;;;;31.40;55.98;98911.45;1740871;81;20872;-66
2021/07/29 05:23:36;;;;;;;81.92;10.38;;;;;;;31.51;55.42;98904.97;1746322;81;21823;-66
2021/07/29 05:26:03;;;;;;;17.40;4.25;;;;;;;31.63;54.95;98909.90;1736616;81;21494;-66
2021/07/29 05:28:30;;;;;;;35.05;5.37;;;;;;;31.68;54.43;98911.39;1741857;81;20939;-66
2021/07/29 05:30:58;;;;;;;82.45;9.33;;;;;;;31.92;53.92;98915.53;1742429;81;20931;-66
2021/07/29 05:33:24;;;;;;;14.55;3.58;;;;;;;31.74;52.88;98914.52;1741964;81;20903;-66
2021/07/29 05:35:51;;;;;;;31.25;14.83;;;;;;;31.67;52.75;98913.77;1745586;81;21896;-67
2021/07/29 05:38:17;;;;;;;21.45;11.40;;;;;;;31.66;52.74;98920.23;1740471;81;20950;-66
2021/07/29 05:40:44;;;;;;;6.45;3.62;;;;;;;31.97;52.02;98919.72;1744524;81;20952;-66
2021/07/29 05:43:10;;;;;;;61.02;7.95;;;;;;;32.01;51.70;98919.53;1743592;81;20934;-66
2021/07/29 05:45:37;;;;;;;60.83;6.80;;;;;;;32.40;51.09;98915.37;1739492;81;20881;-67
2021/07/29 05:48:05;;;;;;;26.52;4.30;;;;;;;32.40;51.09;98915.37;1743458;81;21880;-66
2021/07/29 05:50:32;;;;;;;23.77;4.03;;;;;;;32.41;50.38;98917.56;1745606;81;20955;-67
2021/07/29 05:53:01;;;;;;;16.82;4.00;;;;;;;32.24;49.62;98918.25;1744682;81;21006;-67
2021/07/29 05:55:28;;;;;;;23.77;4.03;;;;;;;32.25;49.47;98913.13;1736521;81;20918;-68
2021/07/29 05:57:54;;;;;;;47.25;7.58;;;;;;;32.25;49.47;98913.13;1738004;81;21446;-67
2021/07/29 06:00:21;;;;;;;57.60;16.42;;;;;;;32.13;49.09;98906.90;1740754;80;21111;-67
2021/07/29 06:02:48;;;;;;;72.30;13.68;;;;;;;32.42;49.19;98924.06;1741054;81;20985;-67
2021/07/29 06:05:15;;;;;;;13.90;4.15;;;;;;;32.61;48.54;98924.81;1740420;81;20912;-67
2021/07/29 06:07:42;;;;;;;20.15;4.08;;;;;;;32.74;48.21;98921.88;1747576;81;20890;-67
2021/07/29 06:10:10;;;;;;;11.00;5.30;;;;;;;32.47;46.93;98918.00;1762329;79;20963;-67
2021/07/29 06:12:37;;;;;;;60.83;13.30;;;;;;;31.95;46.71;98932.08;1759150;79;21028;-67
2021/07/29 06:15:05;;;;;;;23.35;6.05;;;;;;;31.95;47.38;98925.33;1760457;80;21367;-67
2021/07/29 06:17:35;;;;;;;12.25;3.60;;;;;;;32.14;47.02;98926.63;1764829;80;20916;-67
2021/07/29 06:20:08;;;;;;;11.57;4.75;;;;;;;32.27;46.59;98914.27;1764329;80;21372;-67
2021/07/29 06:22:35;;;;;;;26.05;4.70;;;;;;;32.12;46.21;98907.94;1763233;80;20906;-67
2021/07/29 06:25:06;;;;;;;12.05;3.02;;;;;;;32.22;46.00;98914.95;1759859;79;21101;-67
2021/07/29 06:27:30;;;;;;;6.87;2.90;;;;;;;32.12;45.55;98920.09;1748285;80;20901;-67
2021/07/29 06:29:57;;;;;;;6.12;2.90;;;;;;;32.13;45.66;98923.10;1744867;80;21004;-67
2021/07/29 06:32:24;;;;;;;16.55;4.08;;;;;;;32.27;45.18;98913.73;1744550;80;23055;-67
2021/07/29 06:34:50;;;;;;;10.68;3.37;;;;;;;32.21;44.94;98918.72;1748921;80;21124;-67
2021/07/29 06:37:17;;;;;;;10.80;3.22;;;;;;;32.07;44.80;98905.95;1764490;80;21027;-65
2021/07/29 06:39:46;;;;;;;120.85;12.33;;;;;;;32.11;44.66;98903.60;1744263;80;21369;-66
2021/07/29 06:42:12;;;;;;;117.30;11.95;;;;;;;32.15;44.16;98907.47;1755319;80;21541;-67
2021/07/29 06:44:41;;;;;;;90.30;10.72;;;;;;;32.06;44.03;98904.82;1733991;81;20978;-67
2021/07/29 06:47:14;;;;;;;17.48;3.42;;;;;;;31.98;43.61;98903.80;1733891;81;21640;-65
2021/07/29 06:49:43;;;;;;;43.65;5.55;;;;;;;31.74;43.85;98908.30;1762863;80;21053;-65
2021/07/29 06:52:14;;;;;;;31.05;4.50;;;;;;;31.71;43.51;98909.58;1749469;80;20971;-67
2021/07/29 06:54:41;;;;;;;50.88;6.12;;;;;;;31.54;43.44;98907.23;1742124;80;20928;-68
2021/07/29 06:57:09;;;;;;;132.65;13.88;;;;;;;31.54;43.59;98905.89;1717102;81;21475;-66
2021/07/29 06:59:36;;;;;;;33.38;5.85;;;;;;;31.45;43.50;98897.26;1750219;81;20974;-66
2021/07/29 07:02:04;;;;;;;111.35;12.43;;;;;;;31.50;43.36;98908.20;1753075;81;22759;-66
2021/07/29 07:04:30;;;;;;;57.08;6.67;;;;;;;31.36;43.08;98907.55;1780753;80;20934;-66
2021/07/29 07:06:57;;;;;;;15.63;3.17;;;;;;;31.31;42.97;98909.24;1747398;81;21550;-66
2021/07/29 07:09:24;;;;;;;64.85;6.72;;;;;;;31.15;42.79;98900.73;1746636;80;20910;-66
2021/07/29 07:11:50;;;;;;;105.47;10.03;;;;;;;31.03;42.66;98912.48;1755047;80;21718;-66
2021/07/29 07:14:17;;;;;;;147.50;17.20;;;;;;;30.90;42.89;98914.30;1743720;81;21027;-66
2021/07/29 07:16:44;;;;;;;20.15;3.95;;;;;;;30.97;42.91;98916.91;1774554;79;20958;-66
2021/07/29 07:19:10;;;;;;;200.07;26.25;;;;;;;31.19;42.59;98910.53;1770110;79;20930;-66
2021/07/29 07:21:38;;;;;;;103.22;17.45;;;;;;;31.20;42.90;98905.43;1779445;79;20970;-66
2021/07/29 07:24:06;;;;;;;95.35;14.15;;;;;;;31.29;42.75;98905.44;1758199;80;21439;-66
2021/07/29 07:26:33;;;;;;;91.22;14.50;;;;;;;31.54;42.78;98898.61;1751823;81;21036;-66
2021/07/29 07:29:00;;;;;;;136.00;13.28;;;;;;;31.48;42.22;98898.68;1755138;80;21364;-66
2021/07/29 07:31:27;;;;;;;27.90;4.37;;;;;;;31.15;42.19;98905.31;1757369;80;20939;-66
2021/07/29 07:33:53;;;;;;;114.28;11.10;;;;;;;30.73;41.97;98894.34;1761725;80;20948;-67
2021/07/29 07:36:21;;;;;;;33.10;4.25;;;;;;;30.34;42.15;98899.06;1761981;80;21400;-65
2021/07/29 07:38:52;;;;;;;10.03;3.47;;;;;;;29.66;41.77;98899.22;1756883;80;21097;-65
2021/07/29 07:41:17;;;;;;;58.68;7.28;;;;;;;29.15;42.06;98895.19;1761188;79;20891;-65
2021/07/29 07:43:44;;;;;;;81.75;8.80;;;;;;;28.90;42.43;98892.34;1756809;79;20954;-65
2021/07/29 07:46:13;;;;;;;35.23;5.87;;;;;;;28.53;42.10;98887.98;1757287;80;21542;-66
2021/07/29 07:48:40;;;;;;;56.83;6.92;;;;;;;28.39;42.49;98893.03;1756937;80;20912;-65
2021/07/29 07:51:07;;;;;;;75.08;7.80;;;;;;;28.56;42.57;98886.22;1711484;80;20952;-64
2021/07/29 07:53:34;;;;;;;;;;;;;;;28.49;42.42;98893.48;1766338;80;21430;-65
2021/07/29 07:56:05;;;;;;;37.35;5.12;;;;;;;28.29;42.48;98891.59;1760774;79;20134;-64
2021/07/29 07:58:33;;;;;;;138.82;17.23;;;;;;;28.26;42.45;98894.70;1758270;79;20959;-66
2021/07/29 08:01:04;;;;;;;256.50;25.10;;;;;;;28.16;42.70;98892.12;1728476;80;21488;-65
2021/07/29 08:03:31;;;;;;;247.48;28.90;;;;;;;28.15;42.73;98886.42;1759410;80;21079;-66
2021/07/29 08:06:05;;;;;;;270.05;21.60;;;;;;;28.26;42.81;98892.02;1758945;80;20891;-66
2021/07/29 08:08:32;;;;;;;218.55;30.15;;;;;;;28.14;42.43;98890.97;1758501;80;21404;-67
2021/07/29 08:10:59;;;;;;;161.35;22.35;;;;;;;28.01;42.75;98890.98;1758315;79;20891;-66
2021/07/29 08:13:26;;;;;;;168.37;23.65;;;;;;;27.73;42.51;98899.98;1757505;79;20964;-65
2021/07/29 08:15:53;;;;;;;73.22;11.65;;;;;;;27.31;42.58;98899.25;1742319;81;20970;-65
2021/07/29 08:18:20;;;;;;;183.70;17.27;;;;;;;26.94;42.78;98904.00;1752246;80;21421;-65
2021/07/29 08:20:47;;;;;;;161.43;19.17;;;;;;;26.63;42.82;98895.55;1745516;80;21827;-65
2021/07/29 08:23:13;;;;;;;;;;;;;;;26.24;42.99;98904.91;1749868;80;20904;-66
2021/07/29 08:25:40;;;;;;;69.70;9.05;;;;;;;25.91;43.25;98900.11;1750473;80;20112;-65
2021/07/29 08:28:06;;;;;;;33.60;4.80;;;;;;;25.70;43.43;98901.39;1766451;80;21038;-65
2021/07/29 08:30:33;;;;;;;24.20;4.62;;;;;;;25.34;43.92;98876.84;1767286;80;20914;-66
2021/07/29 08:33:11;;;;;;;21.75;4.33;;;;;;;25.42;44.15;98903.45;1758031;80;20982;-65
2021/07/29 08:35:38;;;;;;;26.87;4.40;;;;;;;25.47;44.44;98900.23;1740416;81;20903;-66
2021/07/29 08:38:05;;;;;;;81.20;8.73;;;;;;;25.86;45.12;98886.48;1761240;79;21433;-66
2021/07/29 08:40:32;;;;;;;;;;;;;;;26.39;45.21;98886.11;1762591;80;21432;-65
2021/07/29 08:42:59;;;;;;;130.50;13.62;;;;;;;26.74;45.06;98884.29;1760480;79;20445;-66
2021/07/29 08:45:26;;;;;;;;;;;;;;;27.00;44.98;98892.48;1751934;80;20885;-65
2021/07/29 08:47:55;;;;;;;100.87;11.18;;;;;;;27.34;45.02;98884.10;1736647;80;20118;-65
2021/07/29 08:50:23;;;;;;;69.35;8.13;;;;;;;27.71;44.80;98885.95;1742249;81;20940;-65
2021/07/29 08:52:51;;;;;;;51.95;5.58;;;;;;;27.83;44.44;98884.34;1738659;81;21090;-65
2021/07/29 08:55:18;;;;;;;108.95;13.78;;;;;;;27.72;44.74;98890.27;1739988;81;20943;-66
2021/07/29 08:57:45;;;;;;;120.65;13.70;;;;;;;28.00;44.93;98892.00;1748296;81;21389;-67
2021/07/29 09:00:13;;;;;;;;;;;;;;;28.43;44.95;98886.23;1748505;81;20910;-65
2021/07/29 09:02:40;;;;;;;46.30;5.87;;;;;;;28.71;44.71;98878.77;1744049;81;20163;-66
2021/07/29 09:05:18;;;;;;;32.30;4.62;;;;;;;28.75;44.16;98885.36;1741361;81;21937;-65
2021/07/29 09:08:03;;;;;;;151.00;15.20;;;;;;;28.69;44.21;98880.83;1743612;81;20918;-65
2021/07/29 09:10:31;;;;;;;52.60;4.92;;;;;;;28.83;43.73;98883.49;1741489;81;21939;-65
2021/07/29 09:13:12;;;;;;;108.35;9.98;;;;;;;28.51;43.71;98889.55;1741170;81;21455;-65
2021/07/29 09:15:40;;;;;;;105.47;11.50;;;;;;;28.38;43.89;98886.84;1748154;81;21010;-66
2021/07/29 09:18:07;;;;;;;35.83;6.10;;;;;;;28.16;43.68;98894.28;1748057;81;21034;-68
2021/07/29 09:20:36;;;;;;;59.48;6.08;;;;;;;28.14;43.75;98885.60;1719579;81;20938;-66
2021/07/29 09:23:21;;;;;;;46.77;4.42;;;;;;;28.28;43.53;98889.11;1719097;81;20907;-65
2021/07/29 09:26:01;;;;;;;19.52;3.50;;;;;;;28.03;42.88;98889.72;1745745;80;20898;-66
2021/07/29 09:28:37;;;;;;;54.50;8.50;;;;;;;27.24;42.74;98895.70;1729599;81;21016;-66
2021/07/29 09:31:23;;;;;;;91.10;9.47;;;;;;;27.01;43.19;98882.59;1749574;81;21062;-66
2021/07/29 09:34:02;;;;;;;52.23;6.78;;;;;;;27.01;43.19;98882.59;1749798;81;21453;-66
2021/07/29 09:36:33;;;;;;;54.10;6.20;;;;;;;27.28;43.25;98891.61;1723356;81;21491;-65
2021/07/29 09:39:19;;;;;;;44.65;4.20;;;;;;;27.27;42.69;98897.98;1740518;81;20875;-66
2021/07/29 09:41:48;;;;;;;26.80;3.70;;;;;;;27.25;42.57;98890.64;1749626;81;22542;-66
2021/07/29 09:44:15;;;;;;;17.12;2.92;;;;;;;27.17;42.31;98896.20;1744197;81;21059;-66
2021/07/29 09:46:43;;;;;;;25.17;3.30;;;;;;;27.17;42.29;98897.55;1745048;81;20926;-66
2021/07/29 09:49:11;;;;;;;13.68;2.20;;;;;;;26.90;41.65;98897.37;1746447;81;20871;-67
2021/07/29 09:51:39;;;;;;;72.78;6.90;;;;;;;26.56;42.06;98909.73;1742651;81;20942;-67
2021/07/29 09:54:08;;;;;;;17.87;2.80;;;;;;;26.63;42.04;98912.95;1742553;81;35348;-66
2021/07/29 09:56:35;;;;;;;25.23;3.55;;;;;;;26.43;42.04;98909.59;1742789;81;21126;-66
2021/07/29 09:59:03;;;;;;;12.82;3.20;;;;;;;26.33;42.12;98905.11;1741157;81;20915;-66
2021/07/29 10:01:31;;;;;;;42.70;4.12;;;;;;;26.26;42.13;98894.84;1733792;82;20914;-65
2021/07/29 10:04:00;;;;;;;15.23;2.50;;;;;;;26.44;42.41;98892.53;1734898;81;20942;-67
2021/07/29 10:06:28;;;;;;;3.90;2.00;;;;;;;26.63;42.20;98883.50;1732907;82;21500;-66
2021/07/29 10:09:12;;;;;;;9.55;2.02;;;;;;;26.62;42.11;98883.20;1732437;82;21077;-67
2021/07/29 10:11:46;;;;;;;7.08;2.30;;;;;;;26.65;42.12;98878.78;1742259;82;20938;-66
2021/07/29 10:14:13;;;;;;;6.67;1.95;;;;;;;26.73;42.21;98885.33;1737437;82;20950;-65
2021/07/29 10:16:48;;;;;;;3.55;2.22;;;;;;;26.70;41.95;98889.74;1736617;82;20972;-66
2021/07/29 10:19:17;;;;;;;7.62;2.37;;;;;;;26.41;41.80;98890.25;1738230;81;21408;-66
2021/07/29 10:21:44;;;;;;;12.95;2.72;;;;;;;26.35;41.81;98892.33;1735583;82;21017;-67
2021/07/29 10:24:11;;;;;;;;;;;;;;;26.22;41.80;98885.56;1737801;82;20863;-66
2021/07/29 10:27:09;;;;;;;19.27;3.45;;;;;;;26.25;41.96;98889.19;1736870;81;20147;-66
2021/07/29 10:29:35;;;;;;;14.18;2.47;;;;;;;26.41;42.08;98892.92;1733271;82;21467;-66
2021/07/29 10:32:09;;;;;;;76.40;6.58;;;;;;;26.69;42.26;98894.27;1708812;82;20938;-65
2021/07/29 10:34:33;;;;;;;59.10;5.90;;;;;;;27.07;42.11;98889.01;1739447;82;21108;-65
2021/07/29 10:37:04;;;;;;;21.82;3.83;;;;;;;27.16;41.65;98876.59;1735261;82;20895;-65
2021/07/29 10:39:32;;;;;;;10.58;2.98;;;;;;;26.99;41.34;98890.81;1733152;82;20977;-66
2021/07/29 10:42:02;;;;;;;33.60;4.03;;;;;;;26.69;41.29;98889.41;1732188;82;20942;-65
2021/07/29 10:44:41;;;;;;;36.25;4.87;;;;;;;26.50;41.15;98891.77;1732684;82;20923;-66
2021/07/29 10:47:07;;;;;;;82.60;7.33;;;;;;;26.46;41.27;98889.64;1736795;82;21137;-65
2021/07/29 10:50:03;;;;;;;93.37;9.38;;;;;;;26.65;41.54;98888.16;1730509;82;21528;-66
2021/07/29 10:52:30;;;;;;;;;;;;;;;26.89;41.45;98883.67;1737374;82;21912;-66
2021/07/29 10:54:57;;;;;;;46.83;5.78;;;;;;;26.87;41.06;98887.05;1738806;82;20109;-66
2021/07/29 10:57:24;;;;;;;26.48;3.58;;;;;;;26.78;41.17;98882.89;1712602;82;21635;-66
2021/07/29 10:59:52;;;;;;;10.55;2.50;;;;;;;26.86;41.53;98885.41;1740009;80;21082;-66
2021/07/29 11:02:37;;;;;;;22.45;3.65;;;;;;;27.35;41.81;98881.72;1761384;80;20895;-66
2021/07/29 11:05:05;;;;;;;11.00;3.17;;;;;;;27.79;41.25;98877.74;1739478;81;20889;-66
2021/07/29 11:07:31;;;;;;;8.30;2.42;;;;;;;28.05;41.19;98868.06;1752132;80;20900;-66
2021/07/29 11:10:05;;;;;;;14.80;2.62;;;;;;;28.22;41.12;98866.61;1766826;79;20864;-66
2021/07/29 11:12:35;;;;;;;10.03;2.70;;;;;;;28.52;41.13;98868.89;1767568;80;21100;-66
2021/07/29 11:15:04;;;;;;;50.50;5.42;;;;;;;28.41;40.60;98861.44;1769766;79;21539;-66
2021/07/29 11:17:32;;;;;;;8.08;2.40;;;;;;;28.00;40.34;98872.69;1766530;80;21434;-66
2021/07/29 11:19:58;;;;;;;7.53;2.70;;;;;;;27.50;40.12;98880.73;1749418;80;20937;-66
2021/07/29 11:22:25;;;;;;;;;;;;;;;26.98;40.04;98891.84;1752704;80;20973;-66
2021/07/29 11:24:51;;;;;;;;;;;;;;;26.53;40.11;98891.38;1747079;80;22313;-66
2021/07/29 11:27:31;;;;;;;19.23;2.80;;;;;;;26.07;40.04;98903.84;1758838;79;20771;-66
2021/07/29 11:30:02;;;;;;;18.50;3.70;;;;;;;25.71;40.29;98901.70;1743251;81;20898;-66
2021/07/29 11:32:38;;;;;;;12.07;2.42;;;;;;;25.40;40.36;98897.46;1739328;81;20942;-66